createdAt,value
2023-02-03T00:02:01.624Z,16.53
2023-02-03T00:04:28.415Z,16.73
2023-02-03T00:06:55.246Z,22.33
2023-02-03T00:09:21.978Z,22.53
2023-02-03T00:11:48.793Z,23.27
2023-02-03T00:14:15.482Z,19.67
2023-02-03T00:16:42.236Z,18.30
2023-02-03T00:19:09.080Z,17.00
2023-02-03T00:21:35.811Z,15.83
2023-02-03T00:24:02.784Z,15.23
2023-02-03T00:26:29.690Z,15.13
2023-02-03T00:28:56.375Z,13.93
2023-02-03T00:31:25.091Z,11.93
2023-02-03T00:33:56.949Z,15.47
2023-02-03T00:36:25.316Z,43.73
2023-02-03T00:38:52.118Z,22.93
2023-02-03T00:41:20.497Z,21.63
2023-02-03T00:43:47.867Z,23.80
2023-02-03T00:46:14.890Z,12.73
2023-02-03T00:48:41.607Z,11.80
2023-02-03T00:51:08.552Z,12.30
2023-02-03T00:53:35.233Z,12.37
2023-02-03T00:56:01.942Z,13.03
2023-02-03T00:58:29.209Z,13.47
2023-02-03T01:00:57.359Z,14.77
2023-02-03T01:03:24.185Z,24.47
2023-02-03T01:05:51.289Z,18.83
2023-02-03T01:08:18.070Z,10.10
2023-02-03T01:10:44.866Z,14.37
2023-02-03T01:13:11.568Z,12.10
2023-02-03T01:15:38.303Z,7.80
2023-02-03T01:18:05.099Z,10.57
2023-02-03T01:20:31.762Z,13.27
2023-02-03T01:22:58.469Z,11.50
2023-02-03T01:25:25.216Z,7.73
2023-02-03T01:27:51.922Z,13.97
2023-02-03T01:30:19.254Z,6.30
2023-02-03T01:32:45.971Z,17.30
2023-02-03T01:35:12.675Z,26.27
2023-02-03T01:37:39.435Z,31.87
2023-02-03T01:40:08.164Z,32.50
2023-02-03T01:42:35.015Z,28.30
2023-02-03T01:45:01.763Z,29.10
2023-02-03T01:47:55.705Z,24.23
2023-02-03T01:50:31.444Z,22.40
2023-02-03T01:53:03.160Z,18.10
2023-02-03T01:55:46.496Z,9.33
2023-02-03T01:58:20.451Z,18.03
2023-02-03T02:00:49.745Z,16.98
2023-02-03T02:03:20.024Z,16.13
2023-02-03T02:05:49.374Z,14.80
2023-02-03T02:08:18.483Z,10.30
2023-02-03T02:10:46.943Z,3.40
2023-02-03T02:13:15.202Z,9.50
2023-02-03T02:16:06.013Z,2.40
2023-02-03T02:18:53.033Z,15.77
2023-02-03T02:21:47.709Z,19.40
2023-02-03T02:24:39.534Z,17.65
2023-02-03T02:27:18.401Z,14.47
2023-02-03T02:30:00.971Z,14.90
2023-02-03T02:32:34.548Z,16.60
2023-02-03T02:35:24.257Z,15.60
2023-02-03T02:38:02.535Z,10.10
2023-02-03T02:40:45.074Z,8.77
2023-02-03T02:43:35.668Z,5.37
2023-02-03T02:46:12.290Z,5.57
2023-02-03T02:48:43.396Z,4.10
2023-02-03T02:51:14.307Z,2.43
2023-02-03T02:53:47.280Z,3.43
2023-02-03T02:56:16.992Z,2.03
2023-02-03T02:58:47.572Z,2.33
2023-02-03T03:01:14.322Z,1.60
2023-02-03T03:03:45.325Z,2.90
2023-02-03T03:06:24.188Z,1.87
2023-02-03T03:08:59.518Z,2.60
2023-02-03T03:11:30.546Z,8.77
2023-02-03T03:13:57.669Z,5.87
2023-02-03T03:16:27.592Z,3.50
2023-02-03T03:19:07.217Z,3.13
2023-02-03T03:21:49.783Z,2.53
2023-02-03T03:24:22.334Z,4.23
2023-02-03T03:26:56.010Z,4.17
2023-02-03T03:29:26.763Z,3.37
2023-02-03T03:31:53.673Z,2.80
2023-02-03T03:34:20.827Z,3.03
2023-02-03T03:37:23.851Z,4.43
2023-02-03T03:39:59.969Z,5.23
2023-02-03T03:42:32.561Z,6.37
2023-02-03T03:45:11.490Z,6.23
2023-02-03T03:47:47.760Z,7.73
2023-02-03T03:50:22.057Z,4.10
2023-02-03T03:52:50.583Z,3.08
2023-02-03T03:55:19.699Z,3.60
2023-02-03T03:58:01.571Z,2.87
2023-02-03T04:00:32.369Z,2.77
2023-02-03T04:03:06.028Z,1.90
2023-02-03T04:05:34.632Z,3.47
2023-02-03T04:08:03.026Z,2.80
2023-02-03T04:10:41.737Z,3.23
2023-02-03T04:13:10.912Z,4.40
2023-02-03T04:15:37.762Z,4.20
2023-02-03T04:18:05.807Z,2.70
2023-02-03T04:20:33.696Z,3.73
2023-02-03T04:23:00.696Z,5.03
2023-02-03T04:25:27.950Z,4.73
2023-02-03T04:27:55.500Z,5.60
2023-02-03T04:30:22.354Z,9.27
2023-02-03T04:32:49.007Z,10.30
2023-02-03T04:35:16.461Z,15.63
2023-02-03T04:37:43.177Z,19.23
2023-02-03T04:40:10.859Z,17.07
2023-02-03T04:42:39.001Z,23.83
2023-02-03T04:45:07.810Z,26.63
2023-02-03T04:47:34.910Z,13.90
2023-02-03T04:50:02.342Z,8.37
2023-02-03T04:52:29.106Z,26.97
2023-02-03T04:54:56.173Z,25.43
2023-02-03T04:57:22.883Z,20.57
2023-02-03T04:59:49.573Z,24.97
2023-02-03T05:02:16.347Z,13.47
2023-02-03T05:04:43.410Z,5.10
2023-02-03T05:07:10.227Z,8.20
2023-02-03T05:09:36.920Z,9.70
2023-02-03T05:12:03.834Z,18.97
2023-02-03T05:14:30.759Z,19.93
2023-02-03T05:16:57.431Z,15.03
2023-02-03T05:19:24.157Z,13.97
2023-02-03T05:21:51.470Z,7.50
2023-02-03T05:24:18.193Z,7.93
2023-02-03T05:26:44.946Z,4.60
2023-02-03T05:29:12.028Z,4.60
2023-02-03T05:31:38.861Z,35.77
2023-02-03T05:34:05.664Z,46.60
2023-02-03T05:36:32.460Z,27.10
2023-02-03T05:38:59.283Z,26.17
2023-02-03T05:41:44.644Z,33.13
2023-02-03T05:44:11.328Z,31.77
2023-02-03T05:46:38.007Z,32.13
2023-02-03T05:49:04.783Z,34.67
2023-02-03T05:51:31.568Z,38.00
2023-02-03T05:53:58.262Z,30.43
2023-02-03T05:56:25.420Z,22.13
2023-02-03T05:58:53.623Z,18.87
2023-02-03T06:01:20.790Z,18.77
2023-02-03T06:03:48.397Z,40.07
2023-02-03T06:06:16.105Z,40.17
2023-02-03T06:08:43.801Z,36.27
2023-02-03T06:11:11.898Z,46.30
2023-02-03T06:13:38.639Z,27.10
2023-02-03T06:16:05.894Z,45.73
2023-02-03T06:18:32.714Z,67.67
2023-02-03T06:20:59.337Z,66.70
2023-02-03T06:23:26.141Z,83.53
2023-02-03T06:25:52.938Z,71.33
2023-02-03T06:28:20.142Z,32.70
2023-02-03T06:30:50.601Z,18.13
2023-02-03T06:33:17.439Z,13.10
2023-02-03T06:35:44.131Z,12.33
2023-02-03T06:38:11.677Z,29.00
2023-02-03T06:40:38.433Z,63.30
2023-02-03T06:43:05.526Z,63.63
2023-02-03T06:45:32.207Z,35.27
2023-02-03T06:47:59.080Z,40.40
2023-02-03T06:50:25.974Z,57.60
2023-02-03T06:52:52.835Z,46.23
2023-02-03T06:55:19.871Z,43.10
2023-02-03T06:57:48.221Z,41.03
2023-02-03T07:00:18.971Z,43.20
2023-02-03T07:02:46.858Z,34.30
2023-02-03T07:05:13.638Z,26.20
2023-02-03T07:07:40.683Z,22.17
2023-02-03T07:10:08.062Z,6.47
2023-02-03T07:12:36.753Z,7.63
2023-02-03T07:15:05.080Z,6.85
2023-02-03T07:17:32.039Z,9.38
2023-02-03T07:19:58.803Z,2.78
2023-02-03T07:22:25.626Z,2.50
2023-02-03T07:24:52.294Z,2.97
2023-02-03T07:27:19.968Z,3.30
2023-02-03T07:29:46.687Z,7.55
2023-02-03T07:32:13.490Z,7.87
2023-02-03T07:34:40.332Z,5.57
2023-02-03T07:37:07.117Z,5.40
2023-02-03T07:39:34.109Z,6.22
2023-02-03T07:42:01.197Z,8.43
2023-02-03T07:44:27.886Z,8.40
2023-02-03T07:46:54.652Z,7.20
2023-02-03T07:49:22.743Z,7.60
2023-02-03T07:51:49.451Z,6.35
2023-02-03T07:54:16.145Z,2.30
2023-02-03T07:56:43.691Z,2.15
2023-02-03T07:59:10.500Z,3.40
2023-02-03T08:01:40.515Z,4.30
2023-02-03T08:04:07.396Z,6.00
2023-02-03T08:06:34.351Z,2.27
2023-02-03T08:09:01.045Z,2.37
2023-02-03T08:11:27.897Z,7.00
2023-02-03T08:13:54.972Z,10.93
2023-02-03T08:16:21.786Z,13.47
2023-02-03T08:18:48.565Z,7.87
2023-02-03T08:21:15.731Z,9.33
2023-02-03T08:23:42.475Z,7.13
2023-02-03T08:26:09.132Z,7.97
2023-02-03T08:28:38.023Z,5.97
2023-02-03T08:31:12.948Z,3.87
2023-02-03T08:33:39.828Z,5.63
2023-02-03T08:36:07.328Z,5.30
2023-02-03T08:38:34.291Z,8.43
2023-02-03T08:41:00.972Z,6.77
2023-02-03T08:43:27.843Z,3.53
2023-02-03T08:45:54.622Z,4.47
2023-02-03T08:48:21.473Z,6.80
2023-02-03T08:50:52.964Z,5.83
2023-02-03T08:53:19.953Z,3.88
2023-02-03T08:55:46.654Z,4.43
2023-02-03T08:58:13.416Z,3.25
2023-02-03T09:00:40.166Z,5.03
2023-02-03T09:03:07.313Z,9.57
2023-02-03T09:05:34.688Z,6.00
2023-02-03T09:08:01.552Z,2.25
2023-02-03T09:10:30.703Z,5.40
2023-02-03T09:12:57.547Z,2.85
2023-02-03T09:15:24.232Z,5.53
2023-02-03T09:17:51.523Z,4.75
2023-02-03T09:20:18.352Z,4.10
2023-02-03T09:22:45.103Z,3.17
2023-02-03T09:25:12.257Z,3.88
2023-02-03T09:27:39.046Z,7.50
2023-02-03T09:30:06.453Z,4.53
2023-02-03T09:32:34.202Z,5.47
2023-02-03T09:35:00.881Z,7.93
2023-02-03T09:37:30.199Z,1.90
2023-02-03T09:39:58.859Z,3.30
2023-02-03T09:42:28.772Z,3.87
2023-02-03T09:44:55.616Z,4.67
2023-02-03T09:47:27.140Z,3.20
2023-02-03T09:50:00.325Z,3.90
2023-02-03T09:52:32.505Z,36.57
2023-02-03T09:55:07.881Z,8.30
2023-02-03T09:57:47.758Z,5.80
2023-02-03T10:00:30.423Z,8.90
2023-02-03T10:03:03.136Z,3.42
2023-02-03T10:05:32.824Z,2.88
2023-02-03T10:08:24.340Z,2.50
2023-02-03T10:11:09.861Z,2.53
2023-02-03T10:14:02.129Z,2.55
2023-02-03T10:16:43.366Z,3.20
2023-02-03T10:19:16.538Z,1.77
2023-02-03T10:21:47.439Z,5.75
2023-02-03T10:24:20.319Z,5.97
2023-02-03T10:26:47.266Z,5.80
2023-02-03T10:29:40.138Z,7.30
2023-02-03T10:32:13.534Z,3.38
2023-02-03T10:34:44.743Z,6.45
2023-02-03T10:37:18.215Z,3.90
2023-02-03T10:39:50.545Z,4.10
2023-02-03T10:42:18.663Z,4.72
2023-02-03T10:44:56.364Z,2.42
2023-02-03T10:47:34.850Z,3.55
2023-02-03T10:50:15.791Z,2.83
2023-02-03T10:52:42.527Z,3.85
2023-02-03T10:55:31.257Z,4.57
2023-02-03T10:58:06.528Z,2.70
2023-02-03T11:00:38.196Z,2.58
2023-02-03T11:03:28.219Z,2.80
2023-02-03T11:06:16.940Z,4.80
2023-02-03T11:08:47.145Z,6.22
2023-02-03T11:11:25.480Z,5.63
2023-02-03T11:14:15.722Z,3.95
2023-02-03T11:16:44.605Z,3.38
2023-02-03T11:19:22.358Z,4.57
2023-02-03T11:21:52.375Z,3.72
2023-02-03T11:24:25.221Z,2.80
2023-02-03T11:26:57.289Z,4.13
2023-02-03T11:29:31.456Z,3.78
2023-02-03T11:32:03.497Z,3.95
2023-02-03T11:34:38.366Z,3.30
2023-02-03T11:37:30.262Z,5.43
2023-02-03T11:40:19.927Z,3.13
2023-02-03T11:43:19.018Z,2.30
2023-02-03T11:45:49.355Z,3.80
2023-02-03T11:48:21.917Z,4.95
2023-02-03T11:50:55.030Z,3.90
2023-02-03T11:53:56.225Z,4.43
2023-02-03T11:56:45.318Z,3.67
2023-02-03T11:59:21.163Z,4.38
2023-02-03T12:02:23.396Z,12.73
2023-02-03T12:05:11.456Z,3.85
2023-02-03T12:07:47.342Z,5.72
2023-02-03T12:10:26.127Z,6.28
2023-02-03T12:13:12.282Z,5.15
2023-02-03T12:15:57.186Z,5.97
2023-02-03T12:18:30.042Z,2.25
2023-02-03T12:21:32.657Z,3.33
2023-02-03T12:24:18.304Z,4.05
2023-02-03T12:26:57.136Z,2.40
2023-02-03T12:29:39.622Z,4.47
2023-02-03T12:32:30.942Z,4.35
2023-02-03T12:35:06.185Z,2.38
2023-02-03T12:38:02.611Z,5.07
2023-02-03T12:40:37.575Z,7.47
2023-02-03T12:45:57.225Z,7.07
2023-02-03T12:48:37.832Z,5.35
2023-02-03T12:51:11.482Z,5.35
2023-02-03T12:53:44.537Z,7.38
2023-02-03T12:56:20.581Z,9.98
2023-02-03T12:58:50.261Z,3.92
2023-02-03T13:01:30.476Z,4.25
2023-02-03T13:04:14.285Z,3.47
2023-02-03T13:07:15.005Z,13.77
2023-02-03T13:10:06.357Z,2.72
2023-02-03T13:12:44.179Z,6.40
2023-02-03T13:15:34.643Z,3.20
2023-02-03T13:18:11.063Z,5.43
2023-02-03T13:20:37.883Z,2.75
2023-02-03T13:23:08.610Z,8.07
2023-02-03T13:25:43.036Z,6.10
2023-02-03T13:28:33.899Z,3.10
2023-02-03T13:31:29.462Z,5.70
2023-02-03T13:34:27.523Z,9.13
2023-02-03T13:37:27.238Z,13.88
2023-02-03T13:40:01.459Z,3.45
2023-02-03T13:45:17.619Z,6.20
2023-02-03T13:47:54.834Z,10.02
2023-02-03T13:50:28.735Z,10.98
2023-02-03T13:53:03.256Z,7.60
2023-02-03T13:57:58.429Z,5.10
2023-02-03T14:00:43.431Z,5.57
2023-02-03T14:03:26.550Z,6.03
2023-02-03T14:05:58.396Z,8.43
2023-02-03T14:08:28.169Z,7.88
2023-02-03T14:11:32.380Z,18.58
2023-02-03T14:14:08.051Z,7.68
2023-02-03T14:16:36.292Z,7.35
2023-02-03T14:19:04.388Z,11.02
2023-02-03T14:21:40.161Z,9.18
2023-02-03T14:24:10.528Z,8.70
2023-02-03T14:26:45.219Z,11.07
2023-02-03T14:29:30.398Z,8.13
2023-02-03T14:32:00.305Z,9.80
2023-02-03T14:34:43.826Z,6.10
2023-02-03T14:37:15.143Z,12.65
2023-02-03T14:40:16.409Z,9.93
2023-02-03T14:43:11.004Z,14.00
2023-02-03T14:45:49.101Z,12.25
2023-02-03T14:48:46.692Z,17.70
2023-02-03T14:51:48.095Z,23.60
2023-02-03T14:54:36.622Z,21.25
2023-02-03T14:57:19.869Z,15.98
2023-02-03T14:59:56.456Z,14.03
2023-02-03T15:05:22.050Z,27.38
2023-02-03T15:07:51.034Z,26.60
2023-02-03T15:10:44.582Z,28.17
2023-02-03T15:13:28.665Z,36.23
2023-02-03T15:16:06.368Z,39.73
2023-02-03T15:18:36.734Z,28.03
2023-02-03T15:21:04.493Z,39.63
2023-02-03T15:23:43.343Z,40.70
2023-02-03T15:26:13.951Z,45.07
2023-02-03T15:28:44.895Z,26.60
2023-02-03T15:31:29.297Z,46.00
2023-02-03T15:34:01.352Z,39.78
2023-02-03T15:36:39.549Z,33.40
2023-02-03T15:42:27.664Z,40.90
2023-02-03T15:45:20.494Z,50.47
2023-02-03T15:47:55.374Z,61.70
2023-02-03T15:50:32.586Z,78.20
2023-02-03T15:53:14.238Z,76.20
2023-02-03T16:01:37.453Z,80.80
2023-02-03T16:04:15.719Z,81.83
2023-02-03T16:06:47.262Z,86.43
2023-02-03T16:09:33.283Z,107.40
2023-02-03T16:12:18.296Z,99.30
2023-02-03T16:14:47.728Z,106.00
2023-02-03T16:17:23.639Z,115.93
2023-02-03T16:19:53.951Z,106.47
2023-02-03T16:22:35.898Z,110.40
2023-02-03T16:25:22.921Z,125.60
2023-02-03T16:28:20.547Z,117.80
2023-02-03T16:31:16.861Z,89.83
2023-02-03T16:34:05.033Z,51.73
2023-02-03T16:36:50.473Z,47.37
2023-02-03T16:39:35.915Z,38.43
2023-02-03T16:42:34.388Z,42.90
2023-02-03T16:45:19.977Z,41.07
2023-02-03T16:48:07.973Z,38.57
2023-02-03T16:50:53.642Z,42.83
2023-02-03T16:53:29.362Z,38.70
2023-02-03T16:55:57.689Z,43.07
2023-02-03T16:58:24.965Z,37.17
2023-02-03T17:00:57.386Z,43.40
2023-02-03T17:03:27.415Z,42.83
2023-02-03T17:05:55.499Z,48.40
2023-02-03T17:08:28.845Z,56.60
2023-02-03T17:10:56.273Z,77.40
2023-02-03T17:13:24.610Z,91.60
2023-02-03T17:15:55.420Z,53.67
2023-02-03T17:18:22.575Z,114.83
2023-02-03T17:20:49.345Z,102.63
2023-02-03T17:23:17.292Z,88.77
2023-02-03T17:25:46.462Z,78.50
2023-02-03T17:28:14.835Z,45.00
2023-02-03T17:30:42.055Z,52.37
2023-02-03T17:33:12.604Z,55.80
2023-02-03T17:35:47.000Z,64.80
2023-02-03T17:38:16.955Z,47.22
2023-02-03T17:54:41.256Z,50.72
2023-02-03T17:57:08.005Z,54.70
2023-02-03T17:59:39.907Z,56.40
2023-02-03T18:02:07.119Z,59.47
2023-02-03T18:04:35.060Z,63.77
2023-02-03T18:07:07.878Z,74.17
2023-02-03T18:09:34.528Z,104.70
2023-02-03T18:12:03.253Z,106.53
2023-02-03T18:14:30.270Z,106.73
2023-02-03T18:16:57.043Z,102.63
2023-02-03T18:19:23.742Z,92.20
2023-02-03T18:21:50.399Z,65.70
2023-02-03T18:24:24.652Z,50.33
2023-02-03T18:26:52.219Z,58.63
2023-02-03T18:29:21.770Z,41.87
2023-02-03T18:31:48.479Z,30.60
2023-02-03T18:34:16.263Z,47.40
2023-02-03T18:36:44.975Z,40.30
2023-02-03T18:39:14.409Z,39.13
2023-02-03T18:41:41.153Z,42.93
2023-02-03T18:44:08.009Z,52.33
2023-02-03T18:46:35.083Z,49.37
2023-02-03T18:49:05.882Z,65.37
2023-02-03T18:51:34.332Z,58.23
2023-02-03T18:54:01.099Z,54.83
2023-02-03T18:56:35.441Z,72.17
2023-02-03T18:59:10.079Z,65.07
2023-02-03T19:01:39.333Z,75.13
2023-02-03T19:04:06.489Z,71.47
2023-02-03T19:06:34.912Z,61.17
2023-02-03T19:09:03.714Z,43.73
2023-02-03T19:11:30.485Z,47.63
2023-02-03T19:13:57.143Z,44.47
2023-02-03T19:16:30.667Z,46.47
2023-02-03T19:18:57.399Z,33.43
2023-02-03T19:21:24.171Z,28.67
2023-02-03T19:23:50.897Z,38.83
2023-02-03T19:26:17.539Z,39.57
2023-02-03T19:28:44.324Z,39.50
2023-02-03T19:31:15.224Z,38.23
2023-02-03T19:33:42.874Z,47.37
2023-02-03T19:36:10.663Z,47.37
2023-02-03T19:38:37.633Z,53.10
2023-02-03T19:41:04.816Z,53.37
2023-02-03T19:43:31.816Z,50.47
2023-02-03T19:45:59.208Z,48.70
2023-02-03T19:51:17.400Z,47.37
2023-02-03T19:53:44.157Z,45.03
2023-02-03T19:56:11.389Z,43.73
2023-02-03T19:58:38.915Z,48.57
2023-02-03T20:01:06.081Z,54.33
2023-02-03T20:03:32.876Z,46.50
2023-02-03T20:06:01.128Z,36.10
2023-02-03T20:08:28.123Z,32.60
2023-02-03T20:10:54.873Z,33.90
2023-02-03T20:13:21.976Z,43.03
2023-02-03T20:15:48.725Z,61.43
2023-02-03T20:18:15.555Z,42.10
2023-02-03T20:20:44.268Z,47.93
2023-02-03T20:23:10.995Z,56.67
2023-02-03T20:25:37.692Z,46.47
2023-02-03T20:28:05.632Z,46.17
2023-02-03T20:30:32.821Z,43.50
2023-02-03T20:32:59.891Z,45.17
2023-02-03T20:35:27.351Z,39.70
2023-02-03T20:37:54.100Z,39.93
2023-02-03T20:40:23.058Z,38.57
2023-02-03T20:42:51.216Z,38.43
2023-02-03T20:45:22.920Z,42.53
2023-02-03T20:47:50.567Z,41.17
2023-02-03T20:50:40.637Z,43.53
2023-02-03T20:53:13.622Z,45.80
2023-02-03T20:55:42.519Z,32.67
2023-02-03T20:58:28.784Z,39.73
2023-02-03T21:00:57.677Z,37.40
2023-02-03T21:03:43.380Z,35.97
2023-02-03T21:06:20.469Z,40.57
2023-02-03T21:08:48.289Z,40.17
2023-02-03T21:11:18.036Z,44.83
2023-02-03T21:13:52.056Z,55.40
2023-02-03T21:16:35.140Z,55.45
2023-02-03T21:19:03.080Z,63.60
2023-02-03T21:21:39.555Z,50.23
2023-02-03T21:27:36.444Z,54.77
2023-02-03T21:32:50.948Z,27.27
2023-02-03T21:35:32.154Z,31.03
2023-02-03T21:38:04.083Z,25.20
2023-02-03T21:40:37.128Z,30.03
2023-02-03T21:43:03.862Z,45.57
2023-02-03T21:45:35.760Z,41.43
2023-02-03T21:48:34.617Z,42.07
2023-02-03T21:51:04.601Z,32.93
2023-02-03T21:53:36.051Z,37.03
2023-02-03T21:56:15.991Z,32.57
2023-02-03T21:58:46.360Z,38.47
2023-02-03T22:01:19.882Z,51.50
2023-02-03T22:03:52.053Z,52.80
2023-02-03T22:06:40.541Z,47.37
2023-02-03T22:09:18.767Z,42.20
2023-02-03T22:11:45.937Z,41.97
2023-02-03T22:14:19.148Z,43.57
2023-02-03T22:16:45.861Z,44.13
2023-02-03T22:19:13.000Z,42.50
2023-02-03T22:21:40.023Z,34.33
2023-02-03T22:24:06.781Z,33.50
2023-02-03T22:26:35.668Z,32.10
2023-02-03T22:29:02.641Z,31.37
2023-02-03T22:31:29.639Z,29.77
2023-02-03T22:33:56.470Z,21.27
2023-02-03T22:36:23.582Z,23.77
2023-02-03T22:38:50.320Z,23.67
2023-02-03T22:41:19.059Z,24.47
2023-02-03T22:43:45.735Z,28.00
2023-02-03T22:46:12.483Z,30.60
2023-02-03T22:48:39.259Z,30.50
2023-02-03T22:51:06.131Z,28.43
2023-02-03T22:53:32.876Z,30.67
2023-02-03T22:55:59.520Z,34.73
2023-02-03T22:58:38.411Z,40.20
2023-02-03T23:01:05.372Z,27.30
2023-02-03T23:03:32.851Z,27.27
2023-02-03T23:05:59.725Z,25.80
2023-02-03T23:08:27.586Z,28.80
2023-02-03T23:10:54.432Z,31.70
2023-02-03T23:13:21.074Z,37.30
2023-02-03T23:15:47.872Z,35.30
2023-02-03T23:18:14.680Z,35.57
2023-02-03T23:20:41.331Z,34.83
2023-02-03T23:23:10.169Z,37.13
2023-02-03T23:25:36.821Z,38.43
2023-02-03T23:28:03.595Z,37.67
2023-02-03T23:30:36.386Z,35.53
2023-02-03T23:33:03.069Z,35.03
2023-02-03T23:35:49.285Z,34.37
2023-02-03T23:38:17.796Z,31.93
2023-02-03T23:40:45.254Z,33.10
2023-02-03T23:43:13.979Z,31.77
2023-02-03T23:45:40.858Z,30.50
2023-02-03T23:48:08.461Z,29.83
2023-02-03T23:50:35.276Z,28.50
2023-02-03T23:53:01.948Z,30.77
2023-02-03T23:55:35.665Z,29.67
2023-02-03T23:58:02.363Z,30.67
